Time;durP1;ratioP1;P1;durP2;ratioP2;P2;SDS_P1;SDS_P2;PMS_P1;PMS_P2;Temp;Humidity;BMP_temperature;BMP_pressure;BME280_temperature;BME280_humidity;BME280_pressure;Samples;Min_cycle;Max_cycle;Signal;HPM_P1;HPM_P2
2022/05/31 00:00:39;;;;;;;13.52;5.85;;;19.80;99.90;;;;;;4975463;28;20065;-79
2022/05/31 00:03:11;;;;;;;14.55;6.07;;;19.70;99.90;;;;;;4975290;28;20039;-79
2022/05/31 00:05:38;;;;;;;12.57;6.43;;;19.60;99.90;;;;;;4975569;28;20066;-78
2022/05/31 00:08:06;;;;;;;13.25;5.80;;;19.40;99.90;;;;;;4975519;28;20478;-80
2022/05/31 00:10:34;;;;;;;12.32;5.75;;;19.50;99.90;;;;;;4975763;28;20066;-78
2022/05/31 00:13:01;;;;;;;10.68;5.05;;;19.50;99.90;;;;;;4975220;28;20451;-78
2022/05/31 00:15:28;;;;;;;9.98;5.60;;;19.40;99.90;;;;;;4975390;28;20038;-80
2022/05/31 00:17:56;;;;;;;11.35;5.75;;;19.40;99.90;;;;;;4974713;28;20039;-77
2022/05/31 00:20:23;;;;;;;10.93;5.85;;;19.50;99.90;;;;;;4956798;28;20097;-80
2022/05/31 00:22:52;;;;;;;13.00;5.43;;;19.50;99.90;;;;;;4970614;28;20054;-80
2022/05/31 00:25:20;;;;;;;14.93;5.75;;;19.40;99.90;;;;;;4975295;28;20054;-79
2022/05/31 00:27:48;;;;;;;12.73;6.22;;;19.20;99.90;;;;;;4974896;28;20074;-76
2022/05/31 00:30:16;;;;;;;16.33;5.78;;;19.20;99.90;;;;;;4975284;28;20078;-79
2022/05/31 00:32:49;;;;;;;9.85;6.25;;;19.10;99.90;;;;;;4957958;28;20061;-79
2022/05/31 00:35:26;;;;;;;11.50;6.40;;;19.20;99.90;;;;;;4974730;28;20497;-79
2022/05/31 00:37:56;;;;;;;11.15;5.32;;;19.30;99.90;;;;;;4956681;28;20039;-80
2022/05/31 00:40:26;;;;;;;13.32;5.10;;;19.40;99.90;;;;;;4956885;28;20097;-79
2022/05/31 00:43:02;;;;;;;13.77;5.18;;;19.30;99.90;;;;;;4956509;28;20041;-79
2022/05/31 00:46:02;;;;;;;11.32;5.43;;;19.30;99.90;;;;;;4954825;28;20440;-79
2022/05/31 00:48:42;;;;;;;14.77;5.88;;;19.30;99.90;;;;;;4953969;28;20050;-79
2022/05/31 00:51:14;;;;;;;14.05;7.13;;;19.10;99.90;;;;;;4974806;28;20398;-77
2022/05/31 00:53:52;;;;;;;10.07;5.28;;;18.90;99.90;;;;;;4973387;28;20070;-78
2022/05/31 00:56:22;;;;;;;16.20;6.20;;;19.00;99.90;;;;;;4974513;28;20066;-82
2022/05/31 00:58:58;;;;;;;10.00;5.20;;;19.00;99.90;;;;;;4957943;28;20435;-80
2022/05/31 01:01:27;;;;;;;12.27;6.22;;;18.90;99.90;;;;;;4957554;28;20038;-79
2022/05/31 01:03:55;;;;;;;10.80;5.93;;;18.90;99.90;;;;;;4956591;28;20522;-78
2022/05/31 01:06:23;;;;;;;10.55;7.05;;;18.90;99.90;;;;;;4941612;28;20035;-80
2022/05/31 01:08:55;;;;;;;13.88;5.10;;;18.90;99.90;;;;;;4941219;28;20558;-79
2022/05/31 01:11:27;;;;;;;9.75;5.47;;;18.80;99.90;;;;;;4974526;28;20434;-79
2022/05/31 01:13:56;;;;;;;10.63;4.82;;;18.60;99.90;;;;;;4956844;28;20533;-80
2022/05/31 01:16:24;;;;;;;12.32;6.53;;;18.40;99.90;;;;;;4956905;28;20076;-80
2022/05/31 01:18:55;;;;;;;8.75;5.13;;;18.40;99.90;;;;;;4957257;28;20039;-80
2022/05/31 01:21:23;;;;;;;8.27;5.53;;;18.40;99.90;;;;;;4974234;28;20355;-79
2022/05/31 01:24:05;;;;;;;13.68;5.80;;;18.40;99.90;;;;;;4973617;28;20080;-79
2022/05/31 01:26:55;;;;;;;15.65;5.32;;;18.40;99.90;;;;;;4974239;28;20122;-78
2022/05/31 01:29:26;;;;;;;13.43;4.72;;;18.40;99.90;;;;;;4974162;28;20085;-80
2022/05/31 01:32:02;;;;;;;9.57;4.93;;;18.40;99.90;;;;;;4973833;28;20440;-80
2022/05/31 01:34:42;;;;;;;15.48;5.60;;;18.40;99.90;;;;;;4973856;28;20367;-78
2022/05/31 01:37:09;;;;;;;13.60;5.47;;;18.30;99.90;;;;;;4956905;28;20498;-78
2022/05/31 01:39:42;;;;;;;9.93;5.22;;;18.20;99.90;;;;;;4973718;28;20062;-77
2022/05/31 01:42:24;;;;;;;11.63;5.43;;;18.20;99.90;;;;;;4956618;28;20482;-77
2022/05/31 01:44:56;;;;;;;9.77;4.80;;;18.30;99.90;;;;;;4956552;28;20390;-79
2022/05/31 01:47:24;;;;;;;13.43;6.10;;;18.30;99.90;;;;;;4973569;28;20047;-79
2022/05/31 01:49:54;;;;;;;12.00;5.32;;;18.20;99.90;;;;;;4973743;28;20042;-79
2022/05/31 01:52:23;;;;;;;9.57;5.33;;;18.30;99.90;;;;;;4940749;28;20047;-81
2022/05/31 01:54:52;;;;;;;13.82;5.53;;;18.30;99.90;;;;;;4972440;28;20074;-78
2022/05/31 01:57:22;;;;;;;10.30;5.07;;;18.40;99.90;;;;;;4973241;28;20126;-79
2022/05/31 01:59:57;;;;;;;11.77;5.32;;;18.30;99.90;;;;;;4973608;28;20062;-79
2022/05/31 02:02:25;;;;;;;9.95;4.82;;;18.30;99.90;;;;;;4973495;28;20042;-80
2022/05/31 02:04:53;;;;;;;12.13;4.93;;;18.20;99.90;;;;;;4955916;28;20038;-80
2022/05/31 02:07:25;;;;;;;9.75;5.75;;;18.30;99.90;;;;;;4956135;28;20121;-78
2022/05/31 02:09:54;;;;;;;10.23;5.25;;;18.30;99.90;;;;;;4973369;28;20118;-80
2022/05/31 02:12:26;;;;;;;8.38;4.80;;;18.20;99.90;;;;;;4956015;28;20363;-81
2022/05/31 02:14:54;;;;;;;8.68;5.30;;;18.10;99.90;;;;;;4972956;28;20426;-79
2022/05/31 02:17:21;;;;;;;9.10;5.22;;;17.90;99.90;;;;;;4973158;28;20328;-79
2022/05/31 02:19:49;;;;;;;13.65;5.78;;;17.70;99.90;;;;;;4973189;28;20031;-81
2022/05/31 02:22:20;;;;;;;10.02;5.75;;;17.70;99.90;;;;;;4972808;28;20038;-79
2022/05/31 02:24:47;;;;;;;;;;;17.40;99.90;;;;;;4973771;28;20317;-80
2022/05/31 02:27:15;;;;;;;11.05;5.88;;;17.30;99.90;;;;;;4972401;28;19926;-80
2022/05/31 02:29:43;;;;;;;11.00;6.50;;;17.20;99.90;;;;;;4971943;28;20090;-80
2022/05/31 02:32:13;;;;;;;11.00;5.43;;;17.10;99.90;;;;;;4972711;28;20444;-78
2022/05/31 02:34:47;;;;;;;11.07;5.30;;;17.10;99.90;;;;;;4972858;28;20039;-78
2022/05/31 02:37:15;;;;;;;9.57;5.30;;;17.30;99.90;;;;;;4971968;28;20038;-78
2022/05/31 02:39:42;;;;;;;10.93;5.95;;;17.40;99.90;;;;;;4972018;28;20113;-77
2022/05/31 02:42:10;;;;;;;11.40;5.65;;;17.60;99.90;;;;;;4972877;28;20089;-77
2022/05/31 02:44:38;;;;;;;11.07;5.93;;;17.50;99.90;;;;;;4972397;28;20039;-78
2022/05/31 02:47:07;;;;;;;13.65;5.88;;;17.60;99.90;;;;;;4972769;28;20439;-76
2022/05/31 02:49:37;;;;;;;13.63;6.10;;;17.50;99.90;;;;;;4971629;28;20550;-77
2022/05/31 02:52:05;;;;;;;9.75;5.32;;;17.50;99.90;;;;;;4972443;28;20041;-75
2022/05/31 02:54:32;;;;;;;10.50;5.18;;;17.80;99.90;;;;;;4972349;28;20430;-75
2022/05/31 02:57:00;;;;;;;10.95;5.32;;;17.90;99.90;;;;;;4972731;28;20459;-77
2022/05/31 02:59:27;;;;;;;11.35;5.68;;;17.90;99.90;;;;;;4972460;28;20390;-77
2022/05/31 03:01:54;;;;;;;10.85;5.32;;;17.80;99.90;;;;;;4972892;28;20121;-77
2022/05/31 03:04:22;;;;;;;9.57;5.70;;;17.90;99.90;;;;;;4971559;28;20051;-78
2022/05/31 03:06:50;;;;;;;10.07;5.78;;;17.90;99.90;;;;;;4972554;28;20431;-78
2022/05/31 03:09:17;;;;;;;11.15;5.47;;;18.00;99.90;;;;;;4972338;28;20039;-77
2022/05/31 03:11:50;;;;;;;13.07;5.80;;;17.80;99.90;;;;;;4971635;28;20114;-77
2022/05/31 03:14:28;;;;;;;12.10;6.45;;;17.80;99.90;;;;;;4971894;28;20043;-78
2022/05/31 03:17:05;;;;;;;16.38;6.18;;;17.70;99.90;;;;;;4974206;28;20047;-75
2022/05/31 03:19:35;;;;;;;12.27;6.13;;;17.70;99.90;;;;;;4976137;28;20055;-77
2022/05/31 03:22:08;;;;;;;10.88;5.60;;;17.80;99.90;;;;;;4976163;28;20090;-77
2022/05/31 03:24:48;;;;;;;13.32;6.13;;;17.80;99.90;;;;;;4959338;28;20045;-79
2022/05/31 03:27:15;;;;;;;11.93;5.80;;;17.90;99.90;;;;;;4958542;28;20046;-75
2022/05/31 03:29:46;;;;;;;12.88;6.63;;;17.90;99.90;;;;;;4976333;28;20090;-77
2022/05/31 03:32:15;;;;;;;11.23;5.97;;;17.80;99.90;;;;;;4975990;28;20069;-78
2022/05/31 03:34:43;;;;;;;12.60;6.10;;;17.80;99.90;;;;;;4958937;28;20106;-78
2022/05/31 03:37:10;;;;;;;11.60;5.95;;;17.70;99.90;;;;;;4975009;28;20046;-76
2022/05/31 03:39:38;;;;;;;13.90;5.63;;;17.70;99.90;;;;;;4958928;28;20089;-76
2022/05/31 03:42:06;;;;;;;13.18;6.20;;;17.90;99.90;;;;;;4975616;28;20063;-76
2022/05/31 03:44:34;;;;;;;13.30;5.20;;;18.00;99.90;;;;;;4975826;28;20066;-77
2022/05/31 03:47:03;;;;;;;12.98;5.63;;;18.20;99.90;;;;;;4958978;28;20426;-75
2022/05/31 03:49:32;;;;;;;13.50;6.40;;;18.20;99.90;;;;;;4958427;28;20437;-77
2022/05/31 03:51:59;;;;;;;13.25;5.90;;;18.20;99.90;;;;;;4975779;28;20035;-75
2022/05/31 03:54:27;;;;;;;13.07;5.43;;;18.00;99.90;;;;;;4975660;28;20046;-76
2022/05/31 03:56:55;;;;;;;13.32;7.45;;;18.10;99.90;;;;;;4975499;28;20054;-76
2022/05/31 03:59:22;;;;;;;10.88;5.65;;;18.20;99.90;;;;;;4958541;28;20043;-76
2022/05/31 04:01:50;;;;;;;12.30;6.13;;;18.20;99.90;;;;;;4975254;28;20093;-76
2022/05/31 04:04:17;;;;;;;13.05;5.90;;;17.90;99.90;;;;;;4975357;28;20526;-76
2022/05/31 04:06:46;;;;;;;11.50;6.15;;;18.00;99.90;;;;;;4975348;28;20422;-76
2022/05/31 04:09:14;;;;;;;13.90;6.32;;;18.10;99.90;;;;;;4975531;28;20356;-76
2022/05/31 04:11:41;;;;;;;14.38;6.13;;;18.20;99.90;;;;;;4941784;28;20491;-78
2022/05/31 04:14:08;;;;;;;12.00;6.07;;;18.10;99.90;;;;;;4975011;28;20421;-78
2022/05/31 04:16:36;;;;;;;10.15;5.85;;;18.20;99.90;;;;;;4958356;28;20093;-77
2022/05/31 04:19:04;;;;;;;13.50;6.38;;;18.30;99.90;;;;;;4975089;28;20041;-77
2022/05/31 04:21:32;;;;;;;14.07;6.80;;;18.30;99.90;;;;;;4975092;28;20114;-77
2022/05/31 04:23:59;;;;;;;14.70;6.43;;;18.20;99.90;;;;;;4975093;28;20100;-77
2022/05/31 04:26:29;;;;;;;13.80;6.90;;;18.40;99.90;;;;;;4975101;28;20038;-77
2022/05/31 04:28:57;;;;;;;12.60;6.47;;;18.40;99.90;;;;;;4956723;28;20434;-77
2022/05/31 04:31:25;;;;;;;14.13;6.20;;;18.40;99.90;;;;;;4975266;28;20047;-77
2022/05/31 04:33:53;;;;;;;19.77;6.75;;;18.40;99.90;;;;;;4974907;28;20386;-78
2022/05/31 04:36:22;;;;;;;11.30;6.45;;;18.50;99.90;;;;;;4973729;28;20071;-76
2022/05/31 04:38:50;;;;;;;15.85;7.82;;;18.40;99.90;;;;;;4974774;28;20034;-80
2022/05/31 04:41:22;;;;;;;46.63;27.88;;;18.30;99.90;;;;;;4974766;28;20043;-78
2022/05/31 04:43:52;;;;;;;62.80;41.83;;;18.50;99.90;;;;;;4974583;28;20482;-76
2022/05/31 04:46:22;;;;;;;32.97;20.52;;;18.80;99.90;;;;;;4973463;28;20046;-76
2022/05/31 04:48:51;;;;;;;20.48;8.98;;;18.70;99.90;;;;;;4973466;28;20046;-73
2022/05/31 04:51:19;;;;;;;11.45;6.95;;;18.70;99.90;;;;;;4973233;28;20510;-76
2022/05/31 04:53:46;;;;;;;26.95;9.18;;;18.70;99.90;;;;;;4974930;28;20039;-76
2022/05/31 04:56:20;;;;;;;16.35;7.78;;;18.60;99.90;;;;;;4974084;28;20053;-74
2022/05/31 04:58:50;;;;;;;12.07;6.95;;;18.60;99.90;;;;;;4973351;28;20093;-74
2022/05/31 05:01:18;;;;;;;13.82;7.88;;;18.70;99.90;;;;;;4974602;28;20117;-75
2022/05/31 05:03:46;;;;;;;13.75;6.75;;;18.80;99.90;;;;;;4972932;28;20059;-78
2022/05/31 05:06:15;;;;;;;14.75;6.28;;;18.90;99.90;;;;;;4971236;28;20043;-78
2022/05/31 05:08:43;;;;;;;13.10;6.55;;;18.90;99.90;;;;;;4972750;28;20443;-77
2022/05/31 05:11:14;;;;;;;56.05;36.60;;;18.90;99.90;;;;;;4941443;28;20050;-77
2022/05/31 05:13:42;;;;;;;64.43;41.17;;;18.90;99.90;;;;;;4941038;28;20183;-76
2022/05/31 05:16:11;;;;;;;21.73;12.50;;;19.00;99.90;;;;;;4970434;28;20102;-76
2022/05/31 05:18:39;;;;;;;14.18;7.30;;;19.10;99.90;;;;;;4935866;29;20043;-76
2022/05/31 05:21:09;;;;;;;14.57;8.07;;;19.10;99.90;;;;;;4970859;28;20216;-74
2022/05/31 05:23:37;;;;;;;54.47;37.28;;;19.10;99.90;;;;;;4954295;28;20032;-75
2022/05/31 05:26:05;;;;;;;43.38;30.05;;;19.20;99.90;;;;;;4954415;28;20189;-75
2022/05/31 05:31:40;;;;;;;17.08;9.93;;;19.50;99.90;;;;;;4944348;29;20415;-78
2022/05/31 05:34:08;;;;;;;12.77;8.40;;;19.60;99.90;;;;;;4938975;28;20105;-75
2022/05/31 05:36:35;;;;;;;16.42;8.23;;;19.60;99.90;;;;;;4956806;28;20042;-77
2022/05/31 05:39:02;;;;;;;16.83;7.72;;;19.70;99.90;;;;;;4956017;28;20039;-77
2022/05/31 05:41:31;;;;;;;17.85;8.10;;;19.60;99.90;;;;;;4954759;28;20371;-77
2022/05/31 05:43:58;;;;;;;11.70;6.88;;;19.70;99.90;;;;;;4953752;28;20530;-76
2022/05/31 05:46:27;;;;;;;13.73;7.78;;;19.70;99.90;;;;;;4967966;28;20491;-74
2022/05/31 05:48:55;;;;;;;14.27;7.38;;;19.80;99.90;;;;;;4969963;28;20486;-74
2022/05/31 05:51:27;;;;;;;13.13;8.00;;;19.70;99.90;;;;;;4950857;29;20395;-75
2022/05/31 05:53:56;;;;;;;9.93;6.20;;;19.60;99.90;;;;;;4950904;29;20066;-75
2022/05/31 05:56:25;;;;;;;13.65;6.68;;;19.30;99.90;;;;;;4951823;29;20051;-75
2022/05/31 05:58:53;;;;;;;11.37;6.53;;;19.30;99.90;;;;;;4953345;29;20047;-75
2022/05/31 06:01:41;;;;;;;13.18;6.43;;;19.60;99.90;;;;;;4937099;29;20419;-75
2022/05/31 06:04:46;;;;;;;15.88;6.05;;;19.80;99.90;;;;;;4954201;28;20134;-75
2022/05/31 06:07:30;;;;;;;11.38;5.78;;;20.00;99.90;;;;;;4937319;29;20047;-76
2022/05/31 06:10:18;;;;;;;13.52;6.43;;;19.90;99.90;;;;;;4937030;29;20066;-78
2022/05/31 06:12:54;;;;;;;12.02;6.07;;;19.90;99.90;;;;;;4936620;29;20476;-82
2022/05/31 06:15:27;;;;;;;13.85;6.07;;;20.10;99.90;;;;;;4968448;28;20049;-78
2022/05/31 06:17:57;;;;;;;14.40;6.22;;;20.20;99.90;;;;;;4972955;28;20133;-78
2022/05/31 06:20:27;;;;;;;16.85;7.07;;;20.20;99.90;;;;;;4973295;28;20505;-79
2022/05/31 06:22:56;;;;;;;13.52;5.72;;;20.40;99.90;;;;;;4956093;28;20054;-78
2022/05/31 06:25:23;;;;;;;13.85;5.97;;;20.40;99.90;;;;;;4972434;28;20066;-76
2022/05/31 06:27:51;;;;;;;11.98;6.43;;;20.40;99.90;;;;;;4971559;28;20047;-74
2022/05/31 06:30:19;;;;;;;16.17;6.78;;;20.50;99.90;;;;;;4972016;28;20071;-76
2022/05/31 06:32:48;;;;;;;24.73;7.97;;;20.60;99.90;;;;;;4956254;28;20047;-83
2022/05/31 06:35:15;;;;;;;14.77;6.90;;;20.70;99.90;;;;;;4973145;28;20109;-80
2022/05/31 06:37:43;;;;;;;14.02;6.72;;;20.70;99.90;;;;;;4971690;28;20098;-81
2022/05/31 06:40:11;;;;;;;14.38;7.78;;;20.60;99.90;;;;;;4972156;28;20039;-78
2022/05/31 06:42:38;;;;;;;12.63;6.72;;;20.50;99.90;;;;;;4965661;28;20079;-76
2022/05/31 06:45:06;;;;;;;13.13;6.45;;;20.40;99.90;;;;;;4956290;28;20046;-76
2022/05/31 06:47:34;;;;;;;18.33;6.70;;;20.50;99.90;;;;;;4971719;28;20047;-82
2022/05/31 06:50:01;;;;;;;14.68;7.10;;;20.80;99.90;;;;;;4939866;28;20049;-76
2022/05/31 06:58:01;;;;;;;14.43;7.03;;;21.20;99.90;;;;;;4972827;28;20035;-78
2022/05/31 07:00:29;;;;;;;98.85;59.42;;;21.30;99.90;;;;;;4972457;28;20038;-76
2022/05/31 07:02:59;;;;;;;28.52;16.48;;;21.30;99.90;;;;;;4971267;28;20134;-74
2022/05/31 07:05:27;;;;;;;21.33;14.95;;;21.30;99.90;;;;;;4955785;28;20074;-75
2022/05/31 07:07:55;;;;;;;15.18;8.55;;;21.00;99.90;;;;;;4972400;28;20056;-80
2022/05/31 07:10:23;;;;;;;14.30;7.75;;;21.00;99.90;;;;;;4972665;28;20073;-77
2022/05/31 07:12:50;;;;;;;18.33;8.40;;;21.20;99.90;;;;;;4987103;28;20049;-76
2022/05/31 07:15:18;;;;;;;15.30;7.60;;;21.40;99.90;;;;;;4972682;28;20439;-76
2022/05/31 07:17:46;;;;;;;20.17;7.90;;;21.50;99.90;;;;;;4972424;28;20379;-78
2022/05/31 07:20:14;;;;;;;12.57;7.13;;;21.60;99.90;;;;;;4972624;28;20031;-75
2022/05/31 07:22:41;;;;;;;15.27;6.97;;;21.60;99.90;;;;;;4972048;28;20039;-76
2022/05/31 07:25:10;;;;;;;14.82;6.90;;;21.60;99.90;;;;;;4972577;28;20034;-75
2022/05/31 07:27:38;;;;;;;14.45;6.97;;;21.70;99.90;;;;;;4972141;28;20065;-78
2022/05/31 07:30:06;;;;;;;13.85;6.70;;;21.90;99.90;;;;;;4972369;28;20043;-75
2022/05/31 07:32:33;;;;;;;15.70;6.10;;;22.00;99.90;;;;;;4972012;28;20387;-78
2022/05/31 07:35:21;;;;;;;14.75;6.55;;;21.90;99.90;;;;;;4972357;28;20114;-75
2022/05/31 07:37:48;;;;;;;19.15;7.35;;;22.00;99.90;;;;;;4972289;28;20085;-79
2022/05/31 07:40:15;;;;;;;25.05;9.88;;;22.10;99.90;;;;;;4971634;28;20458;-76
2022/05/31 07:42:42;;;;;;;15.65;5.88;;;22.10;99.90;;;;;;4972063;28;20429;-76
2022/05/31 07:45:11;;;;;;;13.73;6.55;;;22.00;99.90;;;;;;4972754;28;20495;-76
2022/05/31 07:47:38;;;;;;;17.90;6.40;;;22.10;99.90;;;;;;4970829;28;20050;-75
2022/05/31 07:50:10;;;;;;;12.27;6.85;;;22.20;99.90;;;;;;4971866;28;20113;-76
2022/05/31 07:52:38;;;;;;;15.20;6.18;;;22.30;99.90;;;;;;4972006;28;20486;-76
2022/05/31 07:55:05;;;;;;;13.45;6.75;;;22.20;99.90;;;;;;4972455;28;20434;-78
2022/05/31 08:00:19;;;;;;;10.80;5.70;;;22.30;99.90;;;;;;4971264;28;20477;-76
2022/05/31 08:02:47;;;;;;;12.25;6.65;;;22.40;99.90;;;;;;4956263;28;20043;-75
2022/05/31 08:05:15;;;;;;;15.13;5.55;;;22.60;99.90;;;;;;4974636;28;20046;-75
2022/05/31 08:07:42;;;;;;;16.25;6.05;;;22.70;99.90;;;;;;4975826;28;20035;-75
2022/05/31 08:10:10;;;;;;;15.13;6.03;;;22.80;99.90;;;;;;4975484;28;20068;-75
2022/05/31 08:12:39;;;;;;;16.90;5.57;;;22.90;99.90;;;;;;4975439;28;20057;-75
2022/05/31 08:15:07;;;;;;;13.93;5.93;;;22.90;99.90;;;;;;4923802;29;20050;-78
2022/05/31 08:17:35;;;;;;;14.55;6.15;;;22.90;99.90;;;;;;4923162;29;20054;-76
2022/05/31 08:20:06;;;;;;;10.38;5.90;;;23.00;99.90;;;;;;4923544;29;20134;-77
2022/05/31 08:22:35;;;;;;;13.07;5.53;;;22.90;99.90;;;;;;4938889;29;20433;-78
2022/05/31 08:25:03;;;;;;;14.38;6.07;;;23.10;99.90;;;;;;4955875;28;20431;-75
2022/05/31 08:27:32;;;;;;;11.18;5.10;;;23.10;99.90;;;;;;4938667;29;20442;-79
2022/05/31 08:29:59;;;;;;;10.18;4.72;;;23.10;99.90;;;;;;4938772;29;20056;-78
2022/05/31 08:32:26;;;;;;;13.00;7.22;;;23.20;99.90;;;;;;4938726;29;20039;-77
2022/05/31 08:34:54;;;;;;;11.98;5.75;;;23.10;99.90;;;;;;4938478;29;20546;-75
2022/05/31 08:37:21;;;;;;;12.57;5.63;;;23.10;99.90;;;;;;4938212;29;20113;-77
2022/05/31 08:39:50;;;;;;;9.45;5.22;;;23.10;99.90;;;;;;4955367;29;20094;-76
2022/05/31 08:42:24;;;;;;;10.75;5.25;;;23.10;99.90;;;;;;4955603;29;20071;-76
2022/05/31 08:44:54;;;;;;;9.57;5.18;;;23.10;99.90;;;;;;4955584;29;20119;-76
2022/05/31 08:47:47;;;;;;;;;;;23.20;99.90;;;;;;4955573;29;20035;-75
2022/05/31 08:53:31;;;;;;;11.85;5.25;;;23.30;99.90;;;;;;4955261;29;20035;-76
2022/05/31 08:59:28;;;;;;;12.95;5.80;;;23.40;99.90;;;;;;4953622;29;20047;-74
2022/05/31 09:02:44;;;;;;;14.40;4.55;;;23.60;99.90;;;;;;4903820;29;20035;-80
2022/05/31 09:05:28;;;;;;;14.23;4.93;;;23.80;99.90;;;;;;4914706;29;20082;-76
2022/05/31 09:08:22;;;;;;;12.93;5.10;;;23.90;99.90;;;;;;4914420;29;20173;-78
2022/05/31 09:10:57;;;;;;;12.20;4.55;;;24.10;99.90;;;;;;4899188;29;20068;-77
2022/05/31 09:13:38;;;;;;;9.55;4.32;;;24.10;99.90;;;;;;4922871;28;20102;-76
2022/05/31 09:16:07;;;;;;;;;;;24.40;99.90;;;;;;4952797;29;20447;-77
2022/05/31 09:19:05;;;;;;;9.13;4.18;;;24.60;98.80;;;;;;4936817;29;20290;-78
2022/05/31 09:21:40;;;;;;;11.23;4.35;;;24.60;99.00;;;;;;4938027;28;20427;-77
2022/05/31 09:24:14;;;;;;;10.52;4.60;;;24.60;99.00;;;;;;4936760;29;20062;-78
2022/05/31 09:27:07;;;;;;;11.27;4.05;;;24.50;98.30;;;;;;4936922;29;20436;-79
2022/05/31 09:29:52;;;;;;;10.18;3.65;;;24.70;95.90;;;;;;4952445;29;20047;-77
2022/05/31 09:32:44;;;;;;;8.52;3.97;;;24.90;96.30;;;;;;4956937;28;20451;-77
2022/05/31 09:35:21;;;;;;;8.45;3.92;;;24.70;97.00;;;;;;4972563;28;20042;-79
2022/05/31 09:38:39;;;;;;;15.20;4.40;;;24.60;97.60;;;;;;4973782;28;20453;-74
2022/05/31 09:41:07;;;;;;;9.40;3.63;;;24.70;97.10;;;;;;4931309;28;20553;-76
2022/05/31 09:43:45;;;;;;;10.02;4.00;;;24.80;98.00;;;;;;4973713;28;20390;-76
2022/05/31 09:46:26;;;;;;;8.15;4.10;;;25.00;97.80;;;;;;4972727;28;20046;-75
2022/05/31 09:48:56;;;;;;;10.57;4.10;;;25.00;97.30;;;;;;4973370;28;20038;-76
2022/05/31 09:51:40;;;;;;;16.70;4.40;;;25.00;97.20;;;;;;4973925;28;20042;-74
2022/05/31 09:57:08;;;;;;;8.52;4.20;;;25.30;97.30;;;;;;4972694;28;20532;-73
2022/05/31 09:59:59;;;;;;;10.70;4.57;;;25.50;97.40;;;;;;4973267;28;20046;-75
2022/05/31 10:02:35;;;;;;;10.40;3.97;;;25.40;97.40;;;;;;4973411;28;20086;-75
2022/05/31 10:05:21;;;;;;;8.70;4.30;;;25.40;97.00;;;;;;4973504;28;20119;-74
2022/05/31 10:07:49;;;;;;;8.95;3.92;;;25.50;96.70;;;;;;4972257;28;20109;-74
2022/05/31 10:10:30;;;;;;;13.15;4.07;;;25.70;97.30;;;;;;4973354;28;20038;-74
2022/05/31 10:13:09;;;;;;;14.73;4.43;;;25.80;96.50;;;;;;4970123;28;20038;-76
2022/05/31 10:15:50;;;;;;;11.47;4.10;;;25.80;96.50;;;;;;4934942;29;20451;-74
2022/05/31 10:18:31;;;;;;;7.13;3.83;;;26.10;96.60;;;;;;4952265;29;20060;-74
2022/05/31 10:21:05;;;;;;;10.75;4.10;;;26.50;94.60;;;;;;4935263;29;20046;-76
2022/05/31 10:23:36;;;;;;;9.48;4.20;;;26.60;93.10;;;;;;4935223;29;20435;-74
2022/05/31 10:26:04;;;;;;;9.52;3.92;;;26.50;93.20;;;;;;4935326;29;20058;-75
2022/05/31 10:28:37;;;;;;;6.95;3.28;;;26.20;93.30;;;;;;4953890;29;20495;-75
2022/05/31 10:31:35;;;;;;;10.27;3.70;;;26.40;93.80;;;;;;4937269;29;20054;-77
2022/05/31 10:34:36;;;;;;;9.38;3.47;;;26.30;93.50;;;;;;4954325;29;20156;-89
2022/05/31 10:37:07;;;;;;;7.53;3.38;;;26.30;91.60;;;;;;4949640;29;20051;-75
2022/05/31 10:39:37;;;;;;;8.98;3.45;;;26.30;92.00;;;;;;4953917;29;20067;-83
2022/05/31 10:42:14;;;;;;;8.50;3.17;;;26.70;93.00;;;;;;4937257;29;20039;-77
2022/05/31 10:44:53;;;;;;;10.18;3.50;;;26.90;90.80;;;;;;4937144;29;20058;-74
2022/05/31 10:47:24;;;;;;;7.23;3.33;;;27.20;90.00;;;;;;4936896;29;20134;-75
2022/05/31 10:49:51;;;;;;;8.90;3.55;;;26.80;87.90;;;;;;4952283;29;20041;-74
2022/05/31 10:52:41;;;;;;;6.93;3.15;;;27.00;88.70;;;;;;4953781;29;20484;-78
2022/05/31 10:55:08;;;;;;;10.23;3.38;;;27.20;86.80;;;;;;4953401;29;20435;-76
2022/05/31 10:57:54;;;;;;;6.30;2.97;;;27.40;86.00;;;;;;4953162;29;20102;-76
2022/05/31 11:00:49;;;;;;;9.60;3.40;;;27.50;85.10;;;;;;4936682;29;20058;-75
2022/05/31 11:03:38;;;;;;;9.40;4.78;;;27.70;83.20;;;;;;4948050;29;20487;-75
2022/05/31 11:06:37;;;;;;;10.52;3.95;;;27.40;88.80;;;;;;4952522;28;20122;-78
2022/05/31 11:12:04;;;;;;;7.75;3.03;;;27.80;83.80;;;;;;4953043;29;20123;-78
2022/05/31 11:14:50;;;;;;;9.88;3.58;;;28.20;82.70;;;;;;4951951;28;20043;-74
2022/05/31 11:17:44;;;;;;;6.30;2.75;;;28.30;78.80;;;;;;4971026;28;20434;-73
2022/05/31 11:20:20;;;;;;;8.95;3.03;;;28.00;79.20;;;;;;4963339;28;20061;-75
2022/05/31 11:22:48;;;;;;;5.25;2.67;;;27.90;75.60;;;;;;4971533;28;20046;-75
2022/05/31 11:25:42;;;;;;;7.10;3.35;;;28.30;75.20;;;;;;4971069;28;20504;-77
2022/05/31 11:28:27;;;;;;;6.72;3.10;;;27.90;75.00;;;;;;4971449;28;20034;-75
2022/05/31 11:31:17;;;;;;;8.38;3.28;;;28.00;75.10;;;;;;4955041;28;20117;-74
2022/05/31 11:33:53;;;;;;;9.13;3.80;;;27.90;75.30;;;;;;4952564;28;20050;-75
2022/05/31 11:36:34;;;;;;;7.18;3.20;;;28.20;75.70;;;;;;4971615;28;20039;-76
2022/05/31 11:39:07;;;;;;;7.82;2.78;;;28.40;72.80;;;;;;4957768;28;20047;-75
2022/05/31 11:42:03;;;;;;;9.90;4.13;;;28.40;72.60;;;;;;4942607;28;20042;-75
2022/05/31 11:44:52;;;;;;;8.68;3.58;;;28.90;70.30;;;;;;4953721;28;20055;-77
2022/05/31 11:47:38;;;;;;;7.32;2.80;;;28.80;71.70;;;;;;4976058;28;20047;-75
2022/05/31 11:50:14;;;;;;;5.57;2.72;;;28.40;69.90;;;;;;4976224;28;20042;-78
2022/05/31 11:53:12;;;;;;;11.00;2.60;;;28.60;69.70;;;;;;4942710;28;20082;-74
2022/05/31 11:56:14;;;;;;;8.23;2.90;;;28.50;71.40;;;;;;4957933;28;20046;-77
2022/05/31 11:58:51;;;;;;;11.23;3.30;;;28.50;66.60;;;;;;4965743;28;20494;-75
2022/05/31 12:01:32;;;;;;;7.35;2.40;;;28.60;67.30;;;;;;4974569;28;20082;-79
2022/05/31 12:04:17;;;;;;;7.90;2.75;;;28.50;63.60;;;;;;4974910;28;20039;-79
2022/05/31 12:07:15;;;;;;;8.43;2.50;;;28.50;62.70;;;;;;4975537;28;20121;-78
2022/05/31 12:10:00;;;;;;;11.85;2.95;;;29.00;64.30;;;;;;4974295;28;20479;-78
2022/05/31 12:12:30;;;;;;;14.30;3.25;;;29.30;67.70;;;;;;4973496;28;20053;-73
2022/05/31 12:15:15;;;;;;;;;;;29.20;66.40;;;;;;4943052;28;20426;-77
2022/05/31 12:18:16;;;;;;;7.72;2.90;;;29.30;69.10;;;;;;4972601;28;19965;-74
2022/05/31 12:21:04;;;;;;;12.82;3.05;;;29.20;64.00;;;;;;4939085;28;20035;-74
2022/05/31 12:23:48;;;;;;;10.90;3.10;;;29.20;65.70;;;;;;4950795;28;20055;-79
2022/05/31 12:26:28;;;;;;;7.82;3.20;;;29.30;65.40;;;;;;4954683;28;20125;-75
2022/05/31 12:29:04;;;;;;;8.90;3.13;;;29.60;65.90;;;;;;4955308;28;20047;-75
2022/05/31 12:31:38;;;;;;;11.10;2.88;;;29.60;65.80;;;;;;4957596;28;20043;-77
2022/05/31 12:34:14;;;;;;;9.65;2.88;;;29.40;67.00;;;;;;4957722;28;20553;-77
2022/05/31 12:37:13;;;;;;;6.15;2.55;;;29.20;64.60;;;;;;4957089;28;20043;-78
2022/05/31 12:39:46;;;;;;;7.70;3.03;;;29.40;65.20;;;;;;4973661;28;20131;-79
2022/05/31 12:42:13;;;;;;;7.07;3.08;;;29.70;65.00;;;;;;4956703;28;20359;-77
2022/05/31 12:44:48;;;;;;;7.05;2.47;;;29.80;64.50;;;;;;4957022;28;20105;-83
2022/05/31 12:47:34;;;;;;;6.70;2.63;;;29.60;62.70;;;;;;4973618;28;20063;-80
2022/05/31 12:50:06;;;;;;;7.65;2.90;;;29.90;65.50;;;;;;4971106;28;20050;-80
2022/05/31 12:55:12;;;;;;;8.38;2.80;;;30.10;63.20;;;;;;4973210;28;20133;-77
2022/05/31 13:00:51;;;;;;;10.02;2.95;;;30.20;63.10;;;;;;4973087;28;20089;-79
2022/05/31 13:03:33;;;;;;;6.43;2.40;;;30.00;63.90;;;;;;4972683;28;20435;-77
2022/05/31 13:06:02;;;;;;;5.90;2.35;;;30.10;64.20;;;;;;4972366;28;20046;-80
2022/05/31 13:08:56;;;;;;;8.77;2.40;;;30.50;63.80;;;;;;4973790;28;20558;-76
2022/05/31 13:20:23;;;;;;;25.10;6.22;;;30.40;59.80;;;;;;4973432;28;20067;-76
2022/05/31 13:23:09;;;;;;;8.02;2.67;;;29.80;65.40;;;;;;4972921;28;20093;-75
2022/05/31 13:25:51;;;;;;;28.15;5.53;;;30.40;62.30;;;;;;4974124;28;20065;-76
2022/05/31 13:28:51;;;;;;;20.30;6.03;;;30.80;61.90;;;;;;4972294;28;20053;-79
2022/05/31 13:31:22;;;;;;;12.98;3.70;;;30.50;61.40;;;;;;4971245;28;20047;-79
2022/05/31 13:34:07;;;;;;;17.83;5.28;;;30.20;61.50;;;;;;4970754;28;20039;-78
2022/05/31 13:36:47;;;;;;;10.38;3.00;;;30.20;60.50;;;;;;4972356;28;20498;-73
2022/05/31 13:39:18;;;;;;;8.57;2.75;;;30.70;60.00;;;;;;4955009;28;20094;-79
2022/05/31 13:42:02;;;;;;;10.52;2.17;;;30.90;58.50;;;;;;4971559;28;20031;-75
2022/05/31 13:44:34;;;;;;;12.45;2.97;;;30.70;59.40;;;;;;4973742;28;20430;-76
2022/05/31 13:47:06;;;;;;;7.45;2.17;;;31.00;60.30;;;;;;4973861;28;20442;-75
2022/05/31 13:49:39;;;;;;;11.23;3.67;;;31.10;58.80;;;;;;4973951;28;20067;-74
2022/05/31 13:52:21;;;;;;;8.40;2.28;;;31.20;59.60;;;;;;4973494;28;20352;-73